Time;durP1;ratioP1;P1;durP2;ratioP2;P2;SDS_P1;SDS_P2;PMS_P1;PMS_P2;Temp;Humidity;BMP_temperature;BMP_pressure;BME280_temperature;BME280_humidity;BME280_pressure;Samples;Min_cycle;Max_cycle;Signal;HPM_P1;HPM_P2
2021/12/28 00:01:14;;;;;;;50.78;36.83;;;3.90;99.90;;;;;;5028328;28;20021;-76
2021/12/28 00:03:42;;;;;;;50.70;36.28;;;3.80;99.90;;;;;;5005594;28;20030;-75
2021/12/28 00:06:08;;;;;;;51.97;37.38;;;4.00;99.90;;;;;;5021009;28;20519;-75
2021/12/28 00:08:34;;;;;;;56.03;40.50;;;3.90;99.90;;;;;;5023316;28;20109;-75
2021/12/28 00:11:00;;;;;;;55.05;38.92;;;3.80;99.90;;;;;;5013897;28;20028;-75
2021/12/28 00:13:27;;;;;;;55.33;39.45;;;3.90;99.90;;;;;;5010000;28;20404;-75
2021/12/28 00:18:22;;;;;;;52.08;38.72;;;3.80;99.90;;;;;;5027073;28;20539;-75
2021/12/28 00:20:52;;;;;;;55.42;40.63;;;3.90;99.90;;;;;;5032272;28;20431;-75
2021/12/28 00:23:20;;;;;;;54.05;38.17;;;4.00;99.90;;;;;;5029949;28;20021;-75
2021/12/28 00:25:48;;;;;;;55.20;39.63;;;3.90;99.90;;;;;;5030782;28;20021;-75
2021/12/28 00:28:15;;;;;;;53.47;39.72;;;3.90;99.90;;;;;;5028102;28;20034;-74
2021/12/28 00:30:41;;;;;;;54.80;39.88;;;4.00;99.90;;;;;;5031631;28;20108;-75
2021/12/28 00:33:07;;;;;;;52.70;38.10;;;4.00;99.90;;;;;;5007321;28;20454;-75
2021/12/28 00:35:36;;;;;;;52.97;38.92;;;4.00;99.90;;;;;;5032074;28;20108;-75
2021/12/28 00:38:06;;;;;;;53.40;40.15;;;4.00;99.90;;;;;;5028075;28;20033;-74
2021/12/28 00:40:33;;;;;;;49.53;38.45;;;3.90;99.90;;;;;;5002232;28;20060;-74
2021/12/28 00:42:59;;;;;;;51.40;36.80;;;4.10;99.90;;;;;;5004732;28;20034;-75
2021/12/28 00:45:24;;;;;;;54.13;38.78;;;4.10;99.90;;;;;;5027209;28;20021;-75
2021/12/28 00:47:50;;;;;;;51.30;39.22;;;4.00;99.90;;;;;;5032094;28;20029;-75
2021/12/28 00:50:17;;;;;;;53.10;38.25;;;4.00;99.90;;;;;;5024390;28;20360;-76
2021/12/28 00:52:45;;;;;;;52.28;38.35;;;4.00;99.90;;;;;;5018952;28;20033;-76
2021/12/28 00:55:14;;;;;;;53.67;39.53;;;4.10;99.90;;;;;;5007507;28;20021;-75
2021/12/28 00:57:40;;;;;;;55.67;40.20;;;4.10;99.90;;;;;;5006170;28;20025;-75
2021/12/28 01:00:10;;;;;;;59.83;41.35;;;4.10;99.90;;;;;;5027698;28;20022;-74
2021/12/28 01:02:36;;;;;;;54.25;40.00;;;4.10;99.90;;;;;;5024235;28;20108;-75
2021/12/28 01:05:02;;;;;;;55.88;40.03;;;4.10;99.90;;;;;;5028371;28;20191;-76
2021/12/28 01:07:27;;;;;;;69.82;46.10;;;4.10;99.90;;;;;;5013965;28;20138;-75
2021/12/28 01:09:53;;;;;;;68.63;46.10;;;4.10;99.90;;;;;;5000639;28;20396;-75
2021/12/28 01:12:19;;;;;;;65.55;45.65;;;4.10;99.90;;;;;;5014243;28;20029;-75
2021/12/28 01:14:45;;;;;;;68.10;45.70;;;4.20;99.90;;;;;;5025998;28;20038;-75
2021/12/28 01:17:11;;;;;;;76.45;50.38;;;4.10;99.90;;;;;;5025113;28;20025;-74
2021/12/28 01:19:36;;;;;;;67.07;44.78;;;4.10;99.90;;;;;;5028162;28;20028;-74
2021/12/28 01:22:03;;;;;;;74.93;50.20;;;4.10;99.90;;;;;;5026788;28;20029;-74
2021/12/28 01:24:32;;;;;;;72.05;47.35;;;4.10;99.90;;;;;;5029425;28;20025;-75
2021/12/28 01:26:58;;;;;;;72.65;48.10;;;4.10;99.90;;;;;;5024282;28;20037;-76
2021/12/28 01:29:25;;;;;;;74.25;48.80;;;4.10;99.90;;;;;;5021067;28;20061;-74
2021/12/28 01:31:51;;;;;;;66.20;47.75;;;4.10;99.90;;;;;;5009000;28;20121;-75
2021/12/28 01:34:17;;;;;;;72.72;50.22;;;4.20;99.90;;;;;;5020672;28;20030;-75
2021/12/28 01:36:43;;;;;;;72.75;49.10;;;4.10;99.90;;;;;;5029842;28;20072;-75
2021/12/28 01:39:09;;;;;;;74.03;50.28;;;4.20;99.90;;;;;;5013838;28;20422;-76
2021/12/28 01:41:35;;;;;;;73.22;49.88;;;4.10;99.90;;;;;;5022590;28;20030;-77
2021/12/28 01:44:04;;;;;;;76.93;52.45;;;4.20;99.90;;;;;;5028517;28;20030;-75
2021/12/28 01:46:30;;;;;;;82.05;53.20;;;4.20;99.90;;;;;;5013709;28;20030;-76
2021/12/28 01:48:56;;;;;;;72.07;49.35;;;4.20;99.90;;;;;;5006470;28;20031;-76
2021/12/28 01:51:23;;;;;;;76.22;52.13;;;4.20;99.90;;;;;;5008764;28;20021;-76
2021/12/28 01:53:52;;;;;;;74.10;48.75;;;4.20;99.90;;;;;;5003226;28;20026;-76
2021/12/28 01:56:25;;;;;;;69.72;48.40;;;4.20;99.90;;;;;;5001293;28;20048;-75
2021/12/28 01:58:50;;;;;;;67.65;47.65;;;4.20;99.90;;;;;;5018254;28;20029;-74
2021/12/28 02:01:16;;;;;;;78.15;51.60;;;4.20;99.90;;;;;;5031515;28;20510;-75
2021/12/28 02:03:43;;;;;;;73.75;50.28;;;4.20;99.90;;;;;;5017942;28;20036;-76
2021/12/28 02:06:10;;;;;;;78.05;51.88;;;4.20;99.90;;;;;;5013490;28;20053;-76
2021/12/28 02:08:36;;;;;;;69.30;47.70;;;4.20;99.90;;;;;;5018106;28;20537;-75
2021/12/28 02:11:03;;;;;;;73.78;48.55;;;4.20;99.90;;;;;;5031352;28;20021;-76
2021/12/28 02:13:28;;;;;;;64.47;46.38;;;4.20;99.90;;;;;;5016979;28;20061;-76
2021/12/28 02:15:56;;;;;;;74.25;50.55;;;4.40;99.90;;;;;;5003256;28;20053;-76
2021/12/28 02:18:23;;;;;;;70.85;49.50;;;4.30;99.90;;;;;;5017954;28;20018;-76
2021/12/28 02:20:50;;;;;;;71.90;47.90;;;4.40;99.90;;;;;;5021663;28;20504;-76
2021/12/28 02:23:15;;;;;;;69.72;47.83;;;4.30;99.90;;;;;;5007119;28;20379;-76
2021/12/28 02:25:42;;;;;;;66.75;46.50;;;4.30;99.90;;;;;;5020823;28;20030;-76
2021/12/28 02:28:09;;;;;;;66.30;46.83;;;4.30;99.90;;;;;;5017638;28;20030;-75
2021/12/28 02:30:38;;;;;;;67.50;46.90;;;4.30;99.90;;;;;;5022929;28;20487;-76
2021/12/28 02:33:04;;;;;;;62.63;45.15;;;4.30;99.90;;;;;;5010469;28;20033;-76
2021/12/28 02:35:30;;;;;;;74.30;48.47;;;4.30;99.90;;;;;;5007332;28;20498;-76
2021/12/28 02:37:56;;;;;;;71.95;47.08;;;4.40;99.90;;;;;;5021591;28;20029;-76
2021/12/28 02:40:25;;;;;;;66.43;44.58;;;4.40;99.90;;;;;;5006828;28;20099;-76
2021/12/28 02:42:52;;;;;;;56.15;39.88;;;4.40;99.90;;;;;;5001708;28;20021;-76
2021/12/28 02:45:25;;;;;;;64.28;43.75;;;4.40;99.90;;;;;;5006224;28;20025;-75
2021/12/28 02:47:51;;;;;;;60.42;41.67;;;4.50;99.90;;;;;;5033406;28;20026;-77
2021/12/28 02:50:24;;;;;;;58.95;43.50;;;4.50;99.90;;;;;;5021824;28;20109;-75
2021/12/28 02:52:50;;;;;;;56.35;39.38;;;4.40;99.90;;;;;;5028040;28;20041;-76
2021/12/28 02:55:19;;;;;;;60.70;42.33;;;4.50;99.90;;;;;;5022285;28;20032;-76
2021/12/28 02:57:51;;;;;;;55.67;40.47;;;4.50;99.90;;;;;;5006013;28;20022;-76
2021/12/28 03:00:43;;;;;;;62.20;44.28;;;4.50;99.90;;;;;;5032625;28;20108;-75
2021/12/28 03:03:16;;;;;;;57.05;40.80;;;4.50;99.90;;;;;;5021734;28;20387;-75
2021/12/28 03:05:44;;;;;;;53.40;39.15;;;4.50;99.90;;;;;;5020250;28;20033;-75
2021/12/28 03:08:11;;;;;;;65.50;44.72;;;4.50;99.90;;;;;;5003557;28;20096;-75
2021/12/28 03:10:38;;;;;;;63.47;43.17;;;4.60;99.90;;;;;;4990400;28;20063;-76
2021/12/28 03:13:04;;;;;;;62.05;44.15;;;4.50;99.90;;;;;;5020833;28;20459;-76
2021/12/28 03:15:30;;;;;;;62.13;41.80;;;4.50;99.90;;;;;;5009145;28;20026;-75
2021/12/28 03:17:56;;;;;;;62.42;41.83;;;4.50;99.90;;;;;;5027467;28;20022;-76
2021/12/28 03:20:21;;;;;;;59.42;40.17;;;4.50;99.90;;;;;;5021292;28;20021;-76
2021/12/28 03:22:47;;;;;;;47.08;36.28;;;4.60;99.90;;;;;;5021756;28;20388;-76
2021/12/28 03:25:13;;;;;;;48.80;36.03;;;4.70;99.90;;;;;;5017298;28;20104;-77
2021/12/28 03:27:39;;;;;;;51.60;34.95;;;4.80;99.90;;;;;;5034648;28;20044;-77
2021/12/28 03:30:08;;;;;;;48.17;35.03;;;4.80;99.90;;;;;;5004733;28;20029;-75
2021/12/28 03:32:34;;;;;;;48.40;35.08;;;4.80;99.90;;;;;;5002887;28;20080;-74
2021/12/28 03:35:03;;;;;;;57.10;39.10;;;4.90;99.90;;;;;;5026047;28;20030;-75
2021/12/28 03:37:29;;;;;;;61.47;38.65;;;4.80;99.90;;;;;;5028496;28;20446;-74
2021/12/28 03:39:55;;;;;;;61.22;39.72;;;4.80;99.90;;;;;;5025902;28;20473;-75
2021/12/28 03:42:20;;;;;;;62.60;40.63;;;4.80;99.90;;;;;;5027498;28;20083;-75
2021/12/28 03:44:47;;;;;;;56.50;38.90;;;4.80;99.90;;;;;;5033592;28;20087;-75
2021/12/28 03:47:12;;;;;;;44.92;33.03;;;4.80;99.90;;;;;;5002371;28;20034;-75
2021/12/28 03:49:38;;;;;;;50.53;35.45;;;4.80;99.90;;;;;;5008783;28;20397;-75
2021/12/28 03:52:04;;;;;;;62.78;38.65;;;4.80;99.90;;;;;;5014024;28;20033;-76
2021/12/28 03:54:30;;;;;;;57.13;38.05;;;4.80;99.90;;;;;;5003539;28;20099;-76
2021/12/28 03:56:56;;;;;;;55.88;36.50;;;4.70;99.90;;;;;;5016231;28;20423;-75
2021/12/28 03:59:22;;;;;;;55.53;35.75;;;4.80;99.90;;;;;;5020186;28;20020;-75
2021/12/28 04:01:48;;;;;;;44.60;31.35;;;4.80;99.90;;;;;;5033448;28;20028;-75
2021/12/28 04:04:13;;;;;;;50.38;33.22;;;4.80;99.90;;;;;;5015675;28;20450;-76
2021/12/28 04:06:39;;;;;;;49.55;33.00;;;4.90;99.90;;;;;;5020043;28;20049;-75
2021/12/28 04:09:07;;;;;;;48.35;34.70;;;4.90;99.90;;;;;;5022780;28;20053;-75
2021/12/28 04:11:32;;;;;;;45.58;32.20;;;4.90;99.90;;;;;;5006519;28;20052;-75
2021/12/28 04:14:05;;;;;;;46.05;33.28;;;4.90;99.90;;;;;;4995533;28;20481;-75
2021/12/28 04:16:32;;;;;;;47.35;33.10;;;4.90;99.90;;;;;;4995873;28;20092;-76
2021/12/28 04:18:58;;;;;;;41.72;29.48;;;4.80;99.90;;;;;;5008488;28;20022;-74
2021/12/28 04:21:23;;;;;;;38.05;27.90;;;4.70;99.90;;;;;;5026192;28;20378;-74
2021/12/28 04:23:50;;;;;;;40.35;28.80;;;4.70;99.90;;;;;;5020108;28;20018;-74
2021/12/28 04:26:15;;;;;;;38.58;26.73;;;4.60;99.90;;;;;;5019214;28;20062;-74
2021/12/28 04:28:41;;;;;;;36.67;27.60;;;4.50;99.90;;;;;;5032596;28;20053;-73
2021/12/28 04:31:07;;;;;;;33.83;26.58;;;4.50;99.90;;;;;;5019563;28;20029;-74
2021/12/28 04:33:37;;;;;;;34.00;24.40;;;4.50;99.90;;;;;;5007403;28;20026;-75
2021/12/28 04:36:05;;;;;;;37.50;27.10;;;4.50;99.90;;;;;;5027072;28;20028;-74
2021/12/28 04:38:31;;;;;;;35.88;26.08;;;4.40;99.90;;;;;;5020959;28;20028;-75
2021/12/28 04:40:56;;;;;;;37.05;26.08;;;4.40;99.90;;;;;;5032410;28;20029;-75
2021/12/28 04:43:22;;;;;;;35.42;25.02;;;4.40;99.90;;;;;;5014747;28;20029;-76
2021/12/28 04:45:47;;;;;;;37.80;26.85;;;4.30;99.90;;;;;;5012646;28;20025;-75
2021/12/28 04:48:13;;;;;;;37.03;27.27;;;4.30;99.90;;;;;;5003432;28;20048;-75
2021/12/28 04:50:41;;;;;;;35.15;27.08;;;4.40;99.90;;;;;;5000437;28;20026;-75
2021/12/28 04:53:11;;;;;;;33.80;26.35;;;4.40;99.90;;;;;;5005770;28;20415;-76
2021/12/28 04:55:43;;;;;;;34.92;26.63;;;4.40;99.90;;;;;;5007327;28;20028;-75
2021/12/28 04:58:10;;;;;;;34.17;26.88;;;4.40;99.90;;;;;;5011785;28;20029;-75
2021/12/28 05:00:36;;;;;;;34.47;27.48;;;4.40;99.90;;;;;;5029816;28;20021;-75
2021/12/28 05:03:02;;;;;;;36.83;28.67;;;4.50;99.90;;;;;;5003883;28;20033;-75
2021/12/28 05:05:27;;;;;;;40.30;28.27;;;4.40;99.90;;;;;;5015963;28;20035;-75
2021/12/28 05:07:53;;;;;;;44.50;32.83;;;4.40;99.90;;;;;;5003851;28;20029;-75
2021/12/28 05:10:20;;;;;;;35.85;28.55;;;4.40;99.90;;;;;;5008057;28;20037;-76
2021/12/28 05:12:46;;;;;;;36.83;28.75;;;4.40;99.90;;;;;;5005467;28;20116;-76
2021/12/28 05:15:11;;;;;;;34.72;27.35;;;4.30;99.90;;;;;;5000741;28;20168;-76
2021/12/28 05:17:37;;;;;;;34.72;28.23;;;4.30;99.90;;;;;;5021855;28;20026;-75
2021/12/28 05:20:05;;;;;;;36.78;27.52;;;4.30;99.90;;;;;;5025936;28;20025;-77
2021/12/28 05:22:31;;;;;;;36.50;28.15;;;4.30;99.90;;;;;;5023029;28;20075;-77
2021/12/28 05:24:56;;;;;;;35.13;28.00;;;4.40;99.90;;;;;;5018639;28;20056;-76
2021/12/28 05:27:22;;;;;;;33.67;25.08;;;4.30;99.90;;;;;;5003708;28;20502;-75
2021/12/28 05:29:48;;;;;;;34.80;25.60;;;4.40;99.90;;;;;;5024724;28;20100;-76
2021/12/28 05:32:15;;;;;;;33.53;25.77;;;4.30;99.90;;;;;;5021716;28;20037;-75
2021/12/28 05:34:41;;;;;;;31.08;24.80;;;4.30;99.90;;;;;;5000137;28;20060;-76
2021/12/28 05:37:06;;;;;;;32.10;24.88;;;4.50;99.90;;;;;;5014040;28;20030;-76
2021/12/28 05:39:32;;;;;;;31.85;24.08;;;4.30;99.90;;;;;;5028455;28;20030;-77
2021/12/28 05:41:58;;;;;;;31.65;23.60;;;4.30;99.90;;;;;;5003905;28;20083;-75
2021/12/28 05:44:24;;;;;;;32.53;24.50;;;4.30;99.90;;;;;;5018012;28;20026;-75
2021/12/28 05:46:50;;;;;;;33.20;24.35;;;4.40;99.90;;;;;;5004460;28;20112;-77
2021/12/28 05:49:17;;;;;;;30.15;24.50;;;4.40;99.90;;;;;;5011936;28;20033;-77
2021/12/28 05:51:42;;;;;;;30.38;23.98;;;4.40;99.90;;;;;;5004724;28;20033;-76
2021/12/28 05:54:08;;;;;;;32.60;24.48;;;4.40;99.90;;;;;;5017764;28;20032;-77
2021/12/28 05:56:34;;;;;;;31.35;23.92;;;4.40;99.90;;;;;;5021102;28;20026;-78
2021/12/28 05:58:59;;;;;;;37.03;26.08;;;4.30;99.90;;;;;;5026570;28;20034;-77
2021/12/28 06:01:25;;;;;;;35.80;25.23;;;4.30;99.90;;;;;;5022949;28;20075;-77
2021/12/28 06:03:52;;;;;;;36.38;27.13;;;4.30;99.90;;;;;;5000652;28;20511;-78
2021/12/28 06:06:17;;;;;;;38.35;26.23;;;4.20;99.90;;;;;;5017251;28;20490;-77
2021/12/28 06:08:43;;;;;;;34.03;25.02;;;4.20;99.90;;;;;;5031464;28;20026;-77
2021/12/28 06:11:13;;;;;;;33.17;24.40;;;4.10;99.90;;;;;;5023175;28;20491;-78
2021/12/28 06:13:43;;;;;;;35.10;24.92;;;4.10;99.90;;;;;;5018691;28;20423;-78
2021/12/28 06:16:10;;;;;;;30.55;23.75;;;4.10;99.90;;;;;;5016141;28;20471;-74
2021/12/28 06:18:36;;;;;;;32.65;23.27;;;4.10;99.90;;;;;;5035555;28;20384;-75
2021/12/28 06:21:02;;;;;;;29.90;23.92;;;4.20;99.90;;;;;;5027668;28;20032;-76
2021/12/28 06:23:27;;;;;;;29.88;23.00;;;4.20;99.90;;;;;;5011529;28;20434;-75
2021/12/28 06:25:53;;;;;;;34.00;23.85;;;4.20;99.90;;;;;;5021493;28;20045;-76
2021/12/28 06:28:19;;;;;;;31.92;23.13;;;4.30;99.90;;;;;;5031314;28;20422;-76
2021/12/28 06:30:44;;;;;;;34.53;24.20;;;4.20;99.90;;;;;;5029918;28;20368;-76
2021/12/28 06:33:11;;;;;;;32.50;24.15;;;4.20;99.90;;;;;;5032537;28;20105;-76
2021/12/28 06:35:37;;;;;;;34.13;23.95;;;4.30;99.90;;;;;;5009956;28;20067;-75
2021/12/28 06:38:03;;;;;;;29.02;21.75;;;4.20;99.90;;;;;;5021501;28;20022;-76
2021/12/28 06:40:28;;;;;;;31.30;22.67;;;4.30;99.90;;;;;;5023352;28;20463;-76
2021/12/28 06:42:55;;;;;;;31.63;22.50;;;4.30;99.90;;;;;;5034471;28;20069;-76
2021/12/28 06:45:22;;;;;;;28.85;20.67;;;4.30;99.90;;;;;;5038307;28;20083;-76
2021/12/28 06:47:48;;;;;;;27.15;20.05;;;4.20;99.90;;;;;;5035103;28;20103;-76
2021/12/28 06:50:15;;;;;;;29.77;20.65;;;4.30;99.90;;;;;;5031914;28;20474;-76
2021/12/28 06:52:40;;;;;;;27.75;21.38;;;4.20;99.90;;;;;;5001399;28;20029;-76
2021/12/28 06:55:08;;;;;;;31.00;22.42;;;4.20;99.90;;;;;;5014224;28;20364;-76
2021/12/28 06:57:34;;;;;;;30.73;22.65;;;4.20;99.90;;;;;;5028108;28;20021;-76
2021/12/28 07:00:00;;;;;;;30.77;22.33;;;4.10;99.90;;;;;;5009713;28;20613;-76
2021/12/28 07:02:25;;;;;;;27.10;21.73;;;4.10;99.90;;;;;;5010624;28;20029;-76
2021/12/28 07:04:52;;;;;;;33.10;22.48;;;4.20;99.90;;;;;;5026433;28;20025;-76
2021/12/28 07:07:18;;;;;;;31.77;23.02;;;4.10;99.90;;;;;;5020627;28;20391;-76
2021/12/28 07:09:44;;;;;;;29.88;20.38;;;4.10;99.90;;;;;;5034235;28;20036;-76
2021/12/28 07:12:11;;;;;;;30.98;21.67;;;4.10;99.90;;;;;;5011502;28;20030;-76
2021/12/28 07:14:37;;;;;;;31.30;21.50;;;4.10;99.90;;;;;;5024879;28;20037;-76
2021/12/28 07:17:03;;;;;;;24.02;19.08;;;4.00;99.90;;;;;;5001833;28;20017;-77
2021/12/28 07:19:28;;;;;;;27.02;20.10;;;4.00;99.90;;;;;;5023007;28;20104;-76
2021/12/28 07:21:54;;;;;;;30.10;21.50;;;4.00;99.90;;;;;;5032218;28;20422;-76
2021/12/28 07:24:20;;;;;;;27.77;19.98;;;4.00;99.90;;;;;;5024893;28;20715;-77
2021/12/28 07:26:46;;;;;;;27.85;19.70;;;3.90;99.90;;;;;;5016870;28;20112;-76
2021/12/28 07:29:12;;;;;;;25.95;19.77;;;4.00;99.90;;;;;;5016694;28;20053;-76
2021/12/28 07:31:38;;;;;;;29.23;20.20;;;4.00;99.90;;;;;;5020884;28;20025;-77
2021/12/28 07:34:04;;;;;;;27.95;20.27;;;4.00;99.90;;;;;;5017691;28;20369;-77
2021/12/28 07:36:29;;;;;;;27.35;19.05;;;4.20;99.90;;;;;;5014242;28;20053;-76
2021/12/28 07:38:55;;;;;;;25.33;18.77;;;4.00;99.90;;;;;;5026503;28;20109;-77
2021/12/28 07:41:21;;;;;;;22.20;16.90;;;4.00;99.90;;;;;;5015167;28;20030;-76
2021/12/28 07:43:47;;;;;;;26.02;17.48;;;4.10;99.90;;;;;;5002911;28;20029;-76
2021/12/28 07:46:14;;;;;;;23.58;17.38;;;4.10;99.90;;;;;;5014264;28;20075;-77
2021/12/28 07:48:40;;;;;;;24.92;16.88;;;4.20;99.90;;;;;;5017522;28;20476;-75
2021/12/28 07:51:07;;;;;;;23.98;18.50;;;4.20;99.90;;;;;;5019264;28;20033;-76
2021/12/28 07:53:33;;;;;;;22.35;16.35;;;4.30;99.90;;;;;;5020633;28;20014;-76
2021/12/28 07:56:01;;;;;;;22.40;17.38;;;4.20;99.90;;;;;;5017624;28;20377;-75
2021/12/28 07:58:27;;;;;;;18.73;15.35;;;4.20;99.90;;;;;;5009332;28;20037;-75
2021/12/28 08:00:52;;;;;;;16.73;13.38;;;4.30;99.90;;;;;;5009505;28;20029;-76
2021/12/28 08:03:19;;;;;;;18.27;13.55;;;4.30;99.90;;;;;;5024700;28;20013;-75
2021/12/28 08:05:45;;;;;;;17.35;14.00;;;4.30;99.90;;;;;;5026310;28;20048;-75
2021/12/28 08:08:10;;;;;;;17.70;14.15;;;4.40;99.90;;;;;;4996453;28;20121;-76
2021/12/28 08:10:36;;;;;;;18.25;14.70;;;4.40;99.90;;;;;;5009051;28;20029;-75
2021/12/28 08:13:02;;;;;;;18.98;14.85;;;4.40;99.90;;;;;;5003480;28;20034;-77
2021/12/28 08:15:28;;;;;;;18.80;14.65;;;4.40;99.90;;;;;;5025044;28;20061;-76
2021/12/28 08:17:53;;;;;;;19.48;14.77;;;4.40;99.90;;;;;;4995311;28;20057;-76
2021/12/28 08:20:19;;;;;;;18.40;15.05;;;4.40;99.90;;;;;;5032194;28;20063;-76
2021/12/28 08:22:46;;;;;;;20.27;15.80;;;4.40;99.90;;;;;;5001349;28;20080;-76
2021/12/28 08:25:15;;;;;;;18.92;15.23;;;4.40;99.90;;;;;;5026201;28;20030;-75
2021/12/28 08:27:41;;;;;;;17.30;14.30;;;4.40;99.90;;;;;;5026533;28;20032;-75
2021/12/28 08:30:08;;;;;;;20.40;15.73;;;4.40;99.90;;;;;;5019927;28;20026;-76
2021/12/28 08:32:34;;;;;;;21.38;17.15;;;4.40;99.90;;;;;;5022528;28;20532;-76
2021/12/28 08:35:00;;;;;;;22.00;17.98;;;4.40;99.90;;;;;;5020915;28;20189;-76
2021/12/28 08:37:27;;;;;;;25.92;18.70;;;4.50;99.90;;;;;;5019232;28;20084;-75
2021/12/28 08:39:52;;;;;;;24.55;19.50;;;4.50;99.90;;;;;;5008029;28;20120;-75
2021/12/28 08:42:19;;;;;;;25.83;20.58;;;4.70;99.90;;;;;;5026191;28;20510;-77
2021/12/28 08:44:45;;;;;;;26.95;19.65;;;4.60;99.90;;;;;;5005219;28;20037;-78
2021/12/28 08:47:10;;;;;;;23.42;18.30;;;4.60;99.90;;;;;;5036684;28;20116;-77
2021/12/28 08:49:36;;;;;;;23.85;18.88;;;4.70;99.90;;;;;;5015263;28;20032;-78
2021/12/28 08:52:02;;;;;;;21.67;17.33;;;4.70;99.90;;;;;;5034878;28;20031;-77
2021/12/28 08:54:28;;;;;;;21.13;16.67;;;4.80;99.90;;;;;;5007252;28;20063;-76
2021/12/28 08:56:53;;;;;;;21.30;16.83;;;4.80;99.90;;;;;;5001820;28;20482;-76
2021/12/28 08:59:20;;;;;;;23.40;19.00;;;4.80;99.90;;;;;;5001400;28;20028;-76
2021/12/28 09:01:47;;;;;;;20.83;16.75;;;4.80;99.90;;;;;;5019722;28;20030;-76
2021/12/28 09:04:12;;;;;;;20.30;16.20;;;4.90;99.90;;;;;;5006252;28;20091;-76
2021/12/28 09:06:38;;;;;;;24.27;17.80;;;4.90;99.90;;;;;;5018806;28;20041;-76
2021/12/28 09:09:04;;;;;;;24.58;18.10;;;5.00;99.90;;;;;;5026372;28;20052;-76
2021/12/28 09:11:30;;;;;;;23.70;16.52;;;5.10;99.90;;;;;;5019104;28;20026;-76
2021/12/28 09:13:55;;;;;;;23.50;17.10;;;5.10;99.90;;;;;;5007508;28;20041;-77
2021/12/28 09:16:22;;;;;;;21.92;17.08;;;5.10;99.90;;;;;;5025257;28;20029;-77
2021/12/28 09:18:48;;;;;;;23.45;18.25;;;5.10;99.90;;;;;;5006077;28;20022;-77
2021/12/28 09:21:14;;;;;;;24.13;16.08;;;5.10;99.90;;;;;;5018710;28;20034;-76
2021/12/28 09:23:40;;;;;;;23.88;17.05;;;5.20;99.90;;;;;;5025352;28;20030;-76
2021/12/28 09:26:06;;;;;;;24.05;18.88;;;5.20;99.90;;;;;;5019804;28;20033;-75
2021/12/28 09:28:31;;;;;;;28.02;20.63;;;5.20;99.90;;;;;;5007961;28;20021;-76
2021/12/28 09:30:57;;;;;;;28.70;18.25;;;5.20;99.90;;;;;;5025616;28;20112;-76
2021/12/28 09:33:24;;;;;;;26.38;19.17;;;5.30;99.90;;;;;;5018340;28;20053;-76
2021/12/28 09:35:53;;;;;;;21.98;16.10;;;5.30;99.90;;;;;;5000784;28;20113;-76
2021/12/28 09:38:22;;;;;;;18.23;15.38;;;5.30;99.90;;;;;;5006202;28;20414;-76
2021/12/28 09:40:50;;;;;;;22.67;17.38;;;5.40;99.90;;;;;;5000434;28;20026;-76
2021/12/28 09:43:15;;;;;;;17.05;13.93;;;5.40;99.90;;;;;;5014834;28;20021;-76
2021/12/28 09:45:41;;;;;;;19.13;14.23;;;5.50;99.90;;;;;;5026289;28;20083;-75
2021/12/28 09:48:08;;;;;;;21.05;14.27;;;5.40;99.90;;;;;;5019349;28;20116;-76
2021/12/28 09:50:35;;;;;;;17.88;14.07;;;5.50;99.90;;;;;;5016420;28;20101;-76
2021/12/28 09:53:01;;;;;;;18.75;14.07;;;5.50;99.90;;;;;;5005940;28;20033;-76
2021/12/28 09:55:28;;;;;;;20.13;13.65;;;5.40;99.90;;;;;;5024846;28;20079;-77
2021/12/28 09:57:53;;;;;;;14.90;11.73;;;5.50;99.90;;;;;;5002030;28;20017;-76
2021/12/28 10:00:21;;;;;;;14.48;10.60;;;5.50;99.90;;;;;;5018177;28;20519;-76
2021/12/28 10:02:46;;;;;;;14.93;10.70;;;5.50;99.90;;;;;;5023748;28;20380;-76
2021/12/28 10:05:17;;;;;;;14.88;11.00;;;5.60;99.90;;;;;;5024500;28;20025;-76
2021/12/28 10:07:50;;;;;;;14.70;11.13;;;5.60;99.90;;;;;;5018873;28;20030;-76
2021/12/28 10:10:16;;;;;;;16.00;10.82;;;5.60;99.90;;;;;;5013664;28;20026;-76
2021/12/28 10:12:45;;;;;;;12.45;10.40;;;5.60;99.90;;;;;;5021822;28;20041;-76
2021/12/28 10:15:17;;;;;;;16.77;11.45;;;5.60;99.90;;;;;;5011802;28;20045;-76
2021/12/28 10:17:45;;;;;;;18.35;12.20;;;5.60;99.90;;;;;;5015465;28;20376;-75
2021/12/28 10:20:19;;;;;;;13.68;10.55;;;5.60;99.90;;;;;;5013708;28;20048;-76
2021/12/28 10:22:58;;;;;;;16.45;12.60;;;5.50;99.90;;;;;;5031467;28;20107;-77
2021/12/28 10:25:47;;;;;;;17.55;14.20;;;5.50;99.90;;;;;;5010679;28;20046;-77
2021/12/28 10:28:19;;;;;;;17.30;13.68;;;5.50;99.90;;;;;;5015696;28;20390;-76
2021/12/28 10:31:07;;;;;;;17.77;12.98;;;5.50;99.90;;;;;;5031342;28;20029;-75
2021/12/28 10:33:37;;;;;;;15.82;13.55;;;5.60;99.90;;;;;;5007228;28;20030;-76
2021/12/28 10:36:07;;;;;;;20.98;13.52;;;5.50;99.90;;;;;;5017698;28;20030;-76
2021/12/28 10:38:38;;;;;;;16.55;11.88;;;5.50;99.90;;;;;;5031175;28;20028;-75
2021/12/28 10:41:13;;;;;;;16.92;11.75;;;5.50;99.90;;;;;;5017826;28;20382;-76
2021/12/28 10:43:45;;;;;;;16.83;11.73;;;5.50;99.90;;;;;;5024028;28;20068;-76
2021/12/28 10:46:14;;;;;;;14.40;11.32;;;5.50;99.90;;;;;;5012702;28;20048;-75
2021/12/28 10:48:50;;;;;;;16.38;11.07;;;5.50;99.90;;;;;;5013951;28;20044;-75
2021/12/28 10:51:41;;;;;;;15.90;11.20;;;5.50;99.90;;;;;;5005131;28;20075;-76
2021/12/28 10:54:19;;;;;;;15.32;11.80;;;5.50;99.90;;;;;;5019762;28;20030;-75
2021/12/28 10:56:59;;;;;;;17.67;11.05;;;5.50;99.90;;;;;;5021789;28;20160;-76
2021/12/28 10:59:27;;;;;;;14.45;10.13;;;5.60;99.90;;;;;;4992455;28;20025;-76
2021/12/28 11:01:54;;;;;;;14.00;10.05;;;5.60;99.90;;;;;;5032563;28;20034;-76
2021/12/28 11:04:20;;;;;;;12.80;9.27;;;5.60;99.90;;;;;;5014446;28;20025;-76
2021/12/28 11:06:48;;;;;;;13.27;9.15;;;5.60;99.90;;;;;;5004510;28;20048;-76
2021/12/28 11:09:25;;;;;;;11.00;8.70;;;5.60;99.90;;;;;;5034429;28;20027;-76
2021/12/28 11:11:54;;;;;;;11.98;9.02;;;5.60;99.90;;;;;;5032031;28;20037;-77
2021/12/28 11:14:23;;;;;;;12.23;8.95;;;5.60;99.90;;;;;;5014579;28;20061;-76
2021/12/28 11:16:54;;;;;;;11.07;8.48;;;5.60;99.90;;;;;;4996556;28;20527;-77
2021/12/28 11:19:28;;;;;;;14.57;9.77;;;5.70;99.90;;;;;;5025304;28;20025;-77
2021/12/28 11:21:57;;;;;;;10.05;8.88;;;5.70;99.90;;;;;;5020723;28;20026;-76
2021/12/28 11:24:29;;;;;;;11.30;8.65;;;5.70;99.90;;;;;;5015976;28;20048;-76
2021/12/28 11:26:54;;;;;;;9.77;8.35;;;5.80;99.90;;;;;;5014119;28;20030;-76
2021/12/28 11:29:30;;;;;;;10.90;8.50;;;5.80;99.90;;;;;;5027234;28;20028;-77
2021/12/28 11:32:00;;;;;;;10.50;8.70;;;5.90;99.90;;;;;;5018862;28;20026;-76
2021/12/28 11:34:35;;;;;;;10.82;8.40;;;5.90;99.90;;;;;;5009154;28;20431;-76
2021/12/28 11:37:03;;;;;;;11.45;9.27;;;5.90;99.90;;;;;;5006252;28;20036;-76
2021/12/28 11:39:34;;;;;;;15.32;11.07;;;5.90;99.90;;;;;;5030233;28;20125;-76
2021/12/28 11:42:02;;;;;;;15.48;11.63;;;5.90;99.90;;;;;;5007210;28;20124;-76
2021/12/28 11:44:29;;;;;;;10.90;8.30;;;5.90;99.90;;;;;;5020725;28;20546;-76
2021/12/28 11:46:57;;;;;;;11.90;8.90;;;5.80;99.90;;;;;;5004454;28;20060;-76
2021/12/28 11:49:27;;;;;;;12.15;9.02;;;5.90;99.90;;;;;;5027266;28;20398;-76
2021/12/28 11:51:54;;;;;;;9.98;8.20;;;5.90;99.90;;;;;;5012263;28;20041;-76
2021/12/28 11:54:23;;;;;;;10.30;8.88;;;5.90;99.90;;;;;;5023220;28;20057;-76
2021/12/28 11:57:00;;;;;;;11.52;8.98;;;5.90;99.90;;;;;;5012097;28;20026;-76
2021/12/28 11:59:28;;;;;;;10.00;8.73;;;5.90;99.90;;;;;;4985157;28;20026;-75
2021/12/28 12:02:11;;;;;;;9.70;8.13;;;6.00;99.90;;;;;;5017647;28;20499;-76
2021/12/28 12:04:51;;;;;;;11.80;9.30;;;6.00;99.90;;;;;;5004797;28;20118;-76
2021/12/28 12:07:17;;;;;;;12.75;9.10;;;6.00;99.90;;;;;;5025553;28;20084;-77
2021/12/28 12:09:54;;;;;;;12.55;10.52;;;6.10;99.90;;;;;;5025465;28;20025;-76
2021/12/28 12:12:44;;;;;;;12.75;9.80;;;6.10;99.90;;;;;;5007410;28;20128;-76
2021/12/28 12:15:11;;;;;;;12.98;10.52;;;6.10;99.90;;;;;;5019323;28;20069;-76
2021/12/28 12:17:41;;;;;;;11.75;8.65;;;6.10;99.90;;;;;;5022615;28;20486;-76
2021/12/28 12:20:15;;;;;;;10.88;8.98;;;6.10;99.90;;;;;;5008432;28;20033;-76
2021/12/28 12:22:55;;;;;;;13.18;9.85;;;6.10;99.90;;;;;;5011505;28;20029;-76
2021/12/28 12:25:42;;;;;;;11.88;9.30;;;6.10;99.90;;;;;;5008668;28;20104;-76
2021/12/28 12:28:09;;;;;;;12.93;9.93;;;6.10;99.90;;;;;;5015699;28;20033;-77
2021/12/28 12:30:35;;;;;;;10.63;9.23;;;6.10;99.90;;;;;;5005829;28;20026;-76
2021/12/28 12:33:06;;;;;;;10.57;8.50;;;6.10;99.90;;;;;;5019469;28;20059;-77
2021/12/28 12:35:49;;;;;;;12.02;9.00;;;6.10;99.90;;;;;;5032281;28;20022;-76
2021/12/28 12:38:15;;;;;;;10.45;9.15;;;6.20;99.90;;;;;;4988008;28;20033;-76
2021/12/28 12:41:19;;;;;;;12.32;9.50;;;6.20;99.90;;;;;;5004871;28;20029;-77
2021/12/28 12:43:55;;;;;;;11.57;9.80;;;6.20;99.90;;;;;;4929424;29;20126;-76